AirNav   Everest Fuels
 
 818 users online  

8VA8 Mary Immaculate Hospital Heliport
Newport News, Virginia, USA

GOING TO NEWPORT NEWS?


FAA INFORMATION EFFECTIVE 31 DECEMBER 2020

Location

FAA Identifier: 8VA8
Lat/Long: 37-08-37.1400N 076-30-39.0100W
37-08.619000N 076-30.650167W
37.1436500,-76.5108361
(estimated)
Elevation: 79 ft. / 24 m (estimated)
Variation: 09W (1985)
From city: 6 miles SE of NEWPORT NEWS, VA
Time zone: UTC -5 (UTC -4 during Daylight Saving Time)
Zip code: 23602

Heliport Operations

Heliport use: Private use, MEDICAL USE.
Activation date: 02/1982
Control tower: no
ARTCC: WASHINGTON CENTER
FSS: LEESBURG FLIGHT SERVICE STATION
Attendance: CONTINUOUS
Wind indicator: yes
Segmented circle: yes
Lights: SS-SR

Heliport Communications

WX ASOS at PHF (1.1 nm SE): PHONE 757-874-3682
WX AWOS-3 at JGG (11 nm NW): 120.625 (757-220-8810)

Nearby radio navigation aids

VOR radial/distance  VOR name  Freq  Var
HCMr159/20.7HARCUM VORTAC108.8007W
ORFr322/21.2NORFOLK VORTAC116.9007W
CCVr253/27.4CAPE CHARLES VORTAC112.2010W
HPWr117/31.0HOPEWELL VORTAC112.0006W
FKNr052/35.2FRANKLIN VORTAC110.6009W

 
NDB name  Hdg/Dist  Freq  Var  ID
WAKEFIELD079/25.427411WAKQ .- -.- --.-

Heliport Services

Runway Information

Helipad H1

Dimensions: 55 x 55 ft. / 17 x 17 m
Surface: concrete
Runway edge lights: PERI
Latitude: 37-08.619000N
Longitude: 076-30.650167W
Elevation: 79.0 ft.
Traffic pattern: leftleft
Markings: basic, in good condition

Heliport Ownership and Management from official FAA records

Ownership: Privately-owned
Owner: BON SECOURS HEALTH SYSTEM INC
2 BERNARDINE DR
NEWPORT NEWS, VA 23602
Phone (757) 886-6200
Manager: C. TIMMIS WINSTANLEY
2 BERNARDINE DR
NEWPORT NEWS, VA 23602
Phone (757) 947-3939

Additional Remarks

A52-H1 BLDG WEST; LIGHT POLE 32' SOUTHEAST OF HELIPAD.
FOR CD CTC NORFOLK APCH AT 757-464-0757.

Instrument Procedures

There are no published instrument procedures at 8VA8.

Some nearby airports with instrument procedures:

KPHF - Newport News/Williamsburg International Airport (1 nm SE)
KFAF - Felker Army Airfield (5 nm W)
KLFI - Langley Air Force Base (8 nm SE)
KJGG - Williamsburg-Jamestown Airport (11 nm NW)
W94 - Camp Peary Landing Strip Airport (12 nm NW)
KNGU - Norfolk Naval Station (Chambers Field) (16 nm SE)
 
Loc | Ops | Rwys | IFR | FBO | Links
Com | Nav | Svcs | Stats | Notes
Area around 8VA8 (Mary Immaculate Hospital Heliport)
 
Road maps at: MapQuest Bing Google
 
Aerial photo
No photo
 
Sectional chart

 
Airport distance calculator
Flying to Mary Immaculate Hospital Heliport? Find the distance to fly.

From to 8VA8

Sunrise and sunset
Times for 27-Jan-2021
 Local
(UTC-5)
 Zulu
(UTC)
Morning civil twilight06:4611:46
Sunrise07:1412:14
Sunset17:2422:24
Evening civil twilight17:5222:52

Current date and time
Zulu (UTC)  27-Jan-2021 13:12:21
Local (UTC-5)  27-Jan-2021 08:12:21
 
METAR
KPHF 271256Z 06007KT 1 3/4SM BR OVC003 04/04 A3007 RMK AO2 T00440044
KFAF 
5nm W 
261958Z 30005KT 4SM BR OVC006 06/05 A2982 RMK OVC V BKN SLP101 T00570048 $
KLFI 
8nm SE 
262011Z AUTO 27005KT 10SM BKN008 OVC020 07/07 A2984 RMK AO2 BKN V OVC CIG 006 RWY26 SLP111 $
KJGG 
11nm NW 
271255Z AUTO 00000KT 4SM OVC004 06/06 A3007 RMK AO1
KNGU 
18nm SE 
271059Z 05003KT 4SM BR OVC003 07/05 A2998 RMK AO2 SLP153 T00670050
TAF
KPHF 271124Z 2712/2812 35005KT 3SM BR OVC002 TEMPO 2712/2713 3/4SM BR FM271400 35007KT P6SM OVC008 FM271600 36008KT P6SM OVC025 FM280700 36012KT 5SM -SN OVC020
KFAF 
5nm W 
252302Z 2523/2701 VRB06KT 9000 -RA OVC006 QNH3003INS BECMG 2604/2605 VRB06KT 9000 -RA OVC010 QNH2984INS BECMG 2617/2618 VRB06KT 9000 BR BKN005 OVC010 QNH2973INS TX10/2617Z TN05/2523Z
KLFI 
8nm SE 
252112Z 2521/2624 10009KT 3200 -RA OVC005 QNH2979INS BECMG 2613/2614 09009KT 9000 -SHRA OVC007 QNH2975INS BECMG 2615/2616 13016KT 9999 NSW OVC007 QNH2974INS TX05/2521Z TN04/2610Z LAST NO AMDS AFT 2521 NEXT 2610
KNGU 
18nm SE 
2523/2623 11007KT 4800 RA BR SCT005 BKN010 OVC070 641209 540109 541008 QNH2996INS TEMPO 2523/2602 3200 RA BR BKN004 OVC010 FM260200 10009KT 3200 RA BR BKN004 OVC010 641209 540109 541008 QNH2981INS TEMPO 2602/2607 4800 RA BR FEW004 BKN010 OVC030 FM261500 20007KT 9999 VCSH BKN004 OVC010 600000 500000 QNH2976INS FM262000 24006KT 9999 SCT004 BKN010 OVC025 QNH2977INS T04/2602Z T10/2614Z FN20002
NOTAMs
Click for the latest NOTAMs
NOTAMs are issued by the DoD/FAA and will open in a separate window not controlled by AirNav.

 

 
 

Would you like to see your business listed on this page?

 If your business provides an interesting product or service to pilots, flight crews, aircraft, or users of the Mary Immaculate Hospital Heliport, you should consider listing it here.  To start the listing process, click on the button below
 
Add a business
 

Other Pages about Mary Immaculate Hospital Heliport

Update a link
 
Copyright © AirNav, LLC. All rights reserved. Privacy Policy  Contact